Time;durP1;ratioP1;P1;durP2;ratioP2;P2;SDS_P1;SDS_P2;PMS_P1;PMS_P2;Temp;Humidity;BMP_temperature;BMP_pressure;BME280_temperature;BME280_humidity;BME280_pressure;Samples;Min_cycle;Max_cycle;Signal;HPM_P1;HPM_P2
2023/08/20 00:00:33;;;;;;;3.10;2.90;;;26.10;99.90;;;;;;5010602;28;20562;-85
2023/08/20 00:03:10;;;;;;;3.30;3.00;;;26.10;99.90;;;;;;5024648;28;20425;-85
2023/08/20 00:05:38;;;;;;;3.10;2.87;;;26.10;99.90;;;;;;5003900;28;20173;-85
2023/08/20 00:08:09;;;;;;;3.97;2.80;;;26.00;99.90;;;;;;5021911;28;20188;-86
2023/08/20 00:10:35;;;;;;;3.50;3.20;;;26.00;99.90;;;;;;5007821;28;20177;-85
2023/08/20 00:13:01;;;;;;;3.33;3.13;;;26.00;99.90;;;;;;5008484;28;20647;-85
2023/08/20 00:15:27;;;;;;;3.43;3.00;;;26.00;99.90;;;;;;5025202;28;20284;-85
2023/08/20 00:17:55;;;;;;;4.57;3.40;;;26.00;99.90;;;;;;5014808;28;20192;-85
2023/08/20 00:20:21;;;;;;;3.47;2.60;;;26.00;99.90;;;;;;5010664;28;20234;-85
2023/08/20 00:22:47;;;;;;;3.47;3.17;;;26.00;99.90;;;;;;5004926;28;20177;-85
2023/08/20 00:25:14;;;;;;;3.83;2.70;;;26.00;99.90;;;;;;5009040;28;20645;-85
2023/08/20 00:27:41;;;;;;;3.20;2.97;;;26.00;99.90;;;;;;5006968;28;20217;-85
2023/08/20 00:30:08;;;;;;;3.17;2.97;;;26.00;99.90;;;;;;5008110;28;20383;-85
2023/08/20 00:32:35;;;;;;;3.37;3.07;;;26.00;99.90;;;;;;5006573;28;20176;-86
2023/08/20 00:35:02;;;;;;;3.30;3.00;;;26.00;99.90;;;;;;5008531;28;20196;-86
2023/08/20 00:37:29;;;;;;;3.40;3.10;;;26.00;99.90;;;;;;5021352;28;20196;-86
2023/08/20 00:39:54;;;;;;;3.70;3.27;;;25.90;99.90;;;;;;5003186;28;20517;-86
2023/08/20 00:42:20;;;;;;;3.17;2.87;;;26.00;99.90;;;;;;5006170;28;20295;-85
2023/08/20 00:44:46;;;;;;;3.17;2.90;;;26.00;99.90;;;;;;5000460;28;20288;-85
2023/08/20 00:47:13;;;;;;;3.43;3.00;;;25.90;99.90;;;;;;5018430;28;20373;-85
2023/08/20 00:49:41;;;;;;;3.07;2.77;;;25.90;99.90;;;;;;5004659;28;20181;-85
2023/08/20 00:52:09;;;;;;;3.30;3.00;;;25.90;99.90;;;;;;5023608;28;20491;-85
2023/08/20 00:54:35;;;;;;;3.40;3.10;;;25.90;99.90;;;;;;5004772;28;20189;-85
2023/08/20 00:57:02;;;;;;;3.13;2.93;;;25.90;99.90;;;;;;5007384;28;20181;-85
2023/08/20 00:59:31;;;;;;;3.17;2.87;;;25.90;99.90;;;;;;5022725;28;20229;-85
2023/08/20 01:01:57;;;;;;;3.33;3.03;;;25.90;99.90;;;;;;5023008;28;20200;-85
2023/08/20 01:04:23;;;;;;;3.20;2.90;;;25.90;99.90;;;;;;5008816;28;20189;-85
2023/08/20 01:07:07;;;;;;;3.13;2.83;;;25.80;99.90;;;;;;5008926;28;20278;-85
2023/08/20 01:09:45;;;;;;;3.20;2.93;;;25.80;99.90;;;;;;5022836;28;20182;-85
2023/08/20 01:12:13;;;;;;;3.60;3.30;;;25.80;99.90;;;;;;5015725;28;20173;-85
2023/08/20 01:14:39;;;;;;;3.10;2.90;;;25.80;99.90;;;;;;5007394;28;20188;-86
2023/08/20 01:17:05;;;;;;;3.23;2.93;;;25.80;99.90;;;;;;5009370;28;20177;-85
2023/08/20 01:19:31;;;;;;;3.20;2.90;;;25.80;99.90;;;;;;5009053;28;20187;-85
2023/08/20 01:22:15;;;;;;;3.10;2.90;;;25.80;99.90;;;;;;5004500;28;20196;-85
2023/08/20 01:25:03;;;;;;;3.23;3.00;;;25.80;99.90;;;;;;5021121;28;20185;-85
2023/08/20 01:27:40;;;;;;;3.20;2.90;;;25.80;99.90;;;;;;5009217;28;20209;-85
2023/08/20 01:30:06;;;;;;;3.10;2.80;;;25.70;99.90;;;;;;5007182;28;20181;-85
2023/08/20 01:32:33;;;;;;;3.00;2.80;;;25.70;99.90;;;;;;5024620;28;20196;-85
2023/08/20 01:34:59;;;;;;;3.23;2.93;;;25.70;99.90;;;;;;5007980;28;20201;-85
2023/08/20 01:37:24;;;;;;;3.43;3.13;;;25.70;99.90;;;;;;5017462;28;20231;-85
2023/08/20 01:39:50;;;;;;;3.23;2.83;;;25.70;99.90;;;;;;5015658;28;20192;-85
2023/08/20 01:42:16;;;;;;;3.10;2.80;;;25.70;99.90;;;;;;5021302;28;20181;-85
2023/08/20 01:44:41;;;;;;;3.33;3.03;;;25.70;99.90;;;;;;5005451;28;20185;-85
2023/08/20 01:47:07;;;;;;;3.50;3.20;;;25.70;99.90;;;;;;5009163;28;20220;-85
2023/08/20 01:49:33;;;;;;;4.40;3.20;;;25.70;99.90;;;;;;5009343;28;20176;-85
2023/08/20 01:51:59;;;;;;;3.67;3.30;;;25.70;99.90;;;;;;5007605;28;20185;-85
2023/08/20 01:54:24;;;;;;;3.20;2.90;;;25.70;99.90;;;;;;5006032;28;20183;-85
2023/08/20 01:56:50;;;;;;;3.90;2.93;;;25.70;99.90;;;;;;5025420;28;20184;-85
2023/08/20 01:59:16;;;;;;;3.10;2.90;;;25.70;99.90;;;;;;5009021;28;20589;-85
2023/08/20 02:01:42;;;;;;;3.17;2.90;;;25.70;99.90;;;;;;5016923;28;20189;-85
2023/08/20 02:04:07;;;;;;;3.60;2.90;;;25.70;99.90;;;;;;5009021;28;20243;-85
2023/08/20 02:06:33;;;;;;;3.17;2.87;;;25.70;99.90;;;;;;5026330;28;20717;-85
2023/08/20 02:08:59;;;;;;;3.63;2.93;;;25.70;99.90;;;;;;5006927;28;20246;-85
2023/08/20 02:11:25;;;;;;;2.87;2.67;;;25.60;99.90;;;;;;4992584;28;20307;-85
2023/08/20 02:13:51;;;;;;;4.23;3.10;;;25.60;99.90;;;;;;5004893;28;20190;-85
2023/08/20 02:16:16;;;;;;;4.43;2.87;;;25.60;99.90;;;;;;5030458;28;20189;-85
2023/08/20 02:18:42;;;;;;;3.30;3.00;;;25.60;99.90;;;;;;5029363;28;20178;-84
2023/08/20 02:21:08;;;;;;;3.07;2.77;;;25.60;99.90;;;;;;5008411;28;20189;-84
2023/08/20 02:23:34;;;;;;;2.97;2.77;;;25.60;99.90;;;;;;5023240;28;20191;-85
2023/08/20 02:26:00;;;;;;;2.97;2.77;;;25.60;99.90;;;;;;5005897;28;20286;-85
2023/08/20 02:28:26;;;;;;;3.20;2.90;;;25.60;99.90;;;;;;5008207;28;20180;-85
2023/08/20 02:30:52;;;;;;;3.17;2.87;;;25.60;99.90;;;;;;5021691;28;20259;-85
2023/08/20 02:33:18;;;;;;;2.87;2.67;;;25.60;99.90;;;;;;5024586;28;20514;-85
2023/08/20 02:35:43;;;;;;;3.40;3.10;;;25.60;99.90;;;;;;5016055;28;20201;-85
2023/08/20 02:38:09;;;;;;;3.30;3.00;;;25.60;99.90;;;;;;5015480;28;20196;-84
2023/08/20 02:40:42;;;;;;;3.80;3.00;;;25.60;99.90;;;;;;5021592;28;20186;-85
2023/08/20 02:43:09;;;;;;;2.87;2.67;;;25.60;99.90;;;;;;5024350;28;20176;-84
2023/08/20 02:45:42;;;;;;;3.07;2.87;;;25.60;99.90;;;;;;5003849;28;20285;-84
2023/08/20 02:48:09;;;;;;;2.90;2.70;;;25.60;99.90;;;;;;5012737;28;20219;-84
2023/08/20 02:50:35;;;;;;;3.43;2.90;;;25.60;99.90;;;;;;5023453;28;20180;-84
2023/08/20 02:53:00;;;;;;;2.87;2.67;;;25.60;99.90;;;;;;5020492;28;20184;-85
2023/08/20 02:55:26;;;;;;;3.40;3.10;;;25.50;99.90;;;;;;5006810;28;20207;-84
2023/08/20 02:57:52;;;;;;;3.40;3.10;;;25.60;99.90;;;;;;5025692;28;20471;-85
2023/08/20 03:00:17;;;;;;;3.40;2.90;;;25.50;99.90;;;;;;5016089;28;20291;-85
2023/08/20 03:02:43;;;;;;;3.80;2.80;;;25.50;99.90;;;;;;5008950;28;20193;-85
2023/08/20 03:05:10;;;;;;;3.97;2.70;;;25.50;99.90;;;;;;5023973;28;20754;-85
2023/08/20 03:07:36;;;;;;;3.10;2.80;;;25.50;99.90;;;;;;5007186;28;20509;-85
2023/08/20 03:10:02;;;;;;;3.10;2.80;;;25.50;99.90;;;;;;5010660;28;20186;-85
2023/08/20 03:12:29;;;;;;;3.50;3.20;;;25.50;99.90;;;;;;5025592;28;20584;-85
2023/08/20 03:14:55;;;;;;;3.07;2.80;;;25.40;99.90;;;;;;5029207;28;20406;-85
2023/08/20 03:17:21;;;;;;;3.13;2.90;;;25.40;99.90;;;;;;5008783;28;20186;-84
2023/08/20 03:19:58;;;;;;;3.20;2.90;;;25.40;99.90;;;;;;5027382;28;20364;-85
2023/08/20 03:22:25;;;;;;;3.40;3.10;;;25.40;99.90;;;;;;5009663;28;20295;-85
2023/08/20 03:24:52;;;;;;;3.20;3.00;;;25.40;99.90;;;;;;5007611;28;20185;-84
2023/08/20 03:27:18;;;;;;;3.10;2.90;;;25.40;99.90;;;;;;5010505;28;20555;-84
2023/08/20 03:29:44;;;;;;;3.00;2.80;;;25.40;99.90;;;;;;5009419;28;20180;-85
2023/08/20 03:32:10;;;;;;;3.27;2.97;;;25.40;99.90;;;;;;5006743;28;20185;-85
2023/08/20 03:34:36;;;;;;;2.97;2.67;;;25.40;99.90;;;;;;5025747;28;20201;-85
2023/08/20 03:37:02;;;;;;;2.97;2.77;;;25.40;99.90;;;;;;5008436;28;20251;-84
2023/08/20 03:39:28;;;;;;;3.93;3.10;;;25.40;99.90;;;;;;5008783;28;20349;-84
2023/08/20 03:41:54;;;;;;;3.40;2.73;;;25.40;99.90;;;;;;5012378;28;20410;-84
2023/08/20 03:44:20;;;;;;;3.40;3.10;;;25.40;99.90;;;;;;5026321;28;20638;-84
2023/08/20 03:46:46;;;;;;;2.90;2.70;;;25.40;99.90;;;;;;5028370;28;20239;-84
2023/08/20 03:49:12;;;;;;;2.93;2.73;;;25.40;99.90;;;;;;5024965;28;20668;-84
2023/08/20 03:51:38;;;;;;;2.90;2.70;;;25.40;99.90;;;;;;5009204;28;20554;-84
2023/08/20 03:54:03;;;;;;;3.43;2.97;;;25.40;99.90;;;;;;5009310;28;20191;-84
2023/08/20 03:56:29;;;;;;;3.17;2.83;;;25.40;99.90;;;;;;5010425;28;20190;-84
2023/08/20 03:58:55;;;;;;;3.80;2.60;;;25.40;99.90;;;;;;5006692;28;20189;-84
2023/08/20 04:01:21;;;;;;;3.60;2.80;;;25.40;99.90;;;;;;5028297;28;20258;-84
2023/08/20 04:03:48;;;;;;;3.37;2.97;;;25.40;99.90;;;;;;5010559;28;20243;-84
2023/08/20 04:06:14;;;;;;;3.37;2.90;;;25.40;99.90;;;;;;5007518;28;20209;-84
2023/08/20 04:08:39;;;;;;;3.30;3.00;;;25.30;99.90;;;;;;5008708;28;20185;-84
2023/08/20 04:11:06;;;;;;;2.97;2.77;;;25.30;99.90;;;;;;5025155;28;20592;-84
2023/08/20 04:13:31;;;;;;;2.90;2.70;;;25.30;99.90;;;;;;5008478;28;20187;-84
2023/08/20 04:15:57;;;;;;;3.07;2.80;;;25.40;99.90;;;;;;5009786;28;20287;-84
2023/08/20 04:18:23;;;;;;;3.00;2.80;;;25.40;99.90;;;;;;5023446;28;20248;-85
2023/08/20 04:20:53;;;;;;;3.20;2.90;;;25.40;99.90;;;;;;5010268;28;20252;-84
2023/08/20 04:23:21;;;;;;;3.30;3.00;;;25.40;99.90;;;;;;5007685;28;20254;-84
2023/08/20 04:25:47;;;;;;;4.00;3.10;;;25.30;99.90;;;;;;5021857;28;20606;-84
2023/08/20 04:28:13;;;;;;;3.03;2.80;;;25.30;99.90;;;;;;5008744;28;20291;-84
2023/08/20 04:30:39;;;;;;;2.97;2.77;;;25.30;99.90;;;;;;5005885;28;20186;-84
2023/08/20 04:33:05;;;;;;;3.20;2.90;;;25.30;99.90;;;;;;5024208;28;20606;-84
2023/08/20 04:35:31;;;;;;;3.20;2.90;;;25.30;99.90;;;;;;5026153;28;20188;-84
2023/08/20 04:37:57;;;;;;;2.97;2.77;;;25.30;99.90;;;;;;5023273;28;20182;-84
2023/08/20 04:40:23;;;;;;;3.03;2.83;;;25.30;99.90;;;;;;5011412;28;20199;-84
2023/08/20 04:42:49;;;;;;;2.90;2.60;;;25.30;99.90;;;;;;5006060;28;20238;-85
2023/08/20 04:45:17;;;;;;;3.20;2.90;;;25.30;99.90;;;;;;5008323;28;20188;-85
2023/08/20 04:47:43;;;;;;;3.13;2.83;;;25.30;99.90;;;;;;5022582;28;20281;-85
2023/08/20 04:50:09;;;;;;;3.37;2.90;;;25.20;99.90;;;;;;5009600;28;20363;-85
2023/08/20 04:52:35;;;;;;;3.47;2.90;;;25.30;99.90;;;;;;5009785;28;20534;-85
2023/08/20 04:55:02;;;;;;;3.23;2.93;;;25.20;99.90;;;;;;5023673;28;20292;-85
2023/08/20 04:57:27;;;;;;;3.07;2.77;;;25.20;99.90;;;;;;5006055;28;20514;-86
2023/08/20 04:59:53;;;;;;;2.80;2.60;;;25.20;99.90;;;;;;5005556;28;20193;-85
2023/08/20 05:02:19;;;;;;;3.13;2.93;;;25.20;99.90;;;;;;5026246;28;20218;-85
2023/08/20 05:04:45;;;;;;;2.87;2.67;;;25.20;99.90;;;;;;5009356;28;20500;-85
2023/08/20 05:07:11;;;;;;;3.57;2.73;;;25.20;99.90;;;;;;5022891;28;20601;-85
2023/08/20 05:09:37;;;;;;;2.90;2.70;;;25.30;99.90;;;;;;5008934;28;20304;-85
2023/08/20 05:12:03;;;;;;;2.90;2.70;;;25.20;99.90;;;;;;5006938;28;20460;-85
2023/08/20 05:14:30;;;;;;;2.90;2.70;;;25.30;99.90;;;;;;5014075;28;20255;-85
2023/08/20 05:16:56;;;;;;;2.80;2.60;;;25.30;99.90;;;;;;5018593;28;20267;-85
2023/08/20 05:19:22;;;;;;;3.30;3.00;;;25.30;99.90;;;;;;5008651;28;20184;-85
2023/08/20 05:21:48;;;;;;;3.03;2.80;;;25.20;99.90;;;;;;5022392;28;20185;-85
2023/08/20 05:24:13;;;;;;;2.90;2.70;;;25.20;99.90;;;;;;5005174;28;20185;-84
2023/08/20 05:26:39;;;;;;;3.20;2.90;;;25.30;99.90;;;;;;5024891;28;20219;-85
2023/08/20 05:29:05;;;;;;;3.13;2.93;;;25.30;99.90;;;;;;5005959;28;20178;-85
2023/08/20 05:31:31;;;;;;;3.63;2.97;;;25.40;99.90;;;;;;5005291;28;20515;-85
2023/08/20 05:33:57;;;;;;;3.27;2.97;;;25.40;99.90;;;;;;5005776;28;20667;-85
2023/08/20 05:36:23;;;;;;;2.80;2.60;;;25.50;99.90;;;;;;5001656;28;20570;-84
2023/08/20 05:38:50;;;;;;;3.13;2.90;;;25.40;99.90;;;;;;5020243;28;20469;-85
2023/08/20 05:41:16;;;;;;;3.13;2.80;;;25.40;99.90;;;;;;5020855;28;20192;-85
2023/08/20 05:43:42;;;;;;;2.90;2.70;;;25.50;99.90;;;;;;5005753;28;20185;-84
2023/08/20 05:46:07;;;;;;;3.43;3.13;;;25.40;99.90;;;;;;5019031;28;20205;-85
2023/08/20 05:48:33;;;;;;;3.00;2.80;;;25.40;99.90;;;;;;5005157;28;20204;-85
2023/08/20 05:50:59;;;;;;;3.50;2.93;;;25.40;99.90;;;;;;5023648;28;20357;-85
2023/08/20 05:53:25;;;;;;;2.93;2.73;;;25.30;99.90;;;;;;5021241;28;20442;-85
2023/08/20 05:55:50;;;;;;;2.70;2.50;;;25.20;99.90;;;;;;5006793;28;20189;-85
2023/08/20 05:58:16;;;;;;;3.17;2.87;;;25.20;99.90;;;;;;5003832;28;20186;-85
2023/08/20 06:00:42;;;;;;;3.10;2.80;;;25.20;99.90;;;;;;5001912;28;20282;-85
2023/08/20 06:03:07;;;;;;;3.30;3.00;;;25.20;99.90;;;;;;5000402;28;20185;-85
2023/08/20 06:05:34;;;;;;;2.90;2.70;;;25.10;99.90;;;;;;5003947;28;20184;-85
2023/08/20 06:08:00;;;;;;;3.07;2.77;;;25.10;99.90;;;;;;5023289;28;20491;-85
2023/08/20 06:10:26;;;;;;;2.93;2.63;;;25.10;99.90;;;;;;5005357;28;20513;-85
2023/08/20 06:12:52;;;;;;;3.30;3.00;;;25.10;99.90;;;;;;5003491;28;20181;-85
2023/08/20 06:15:18;;;;;;;2.93;2.73;;;25.10;99.90;;;;;;5007587;28;20192;-85
2023/08/20 06:17:44;;;;;;;2.93;2.70;;;25.20;99.90;;;;;;5022954;28;20180;-85
2023/08/20 06:20:11;;;;;;;3.27;2.97;;;25.20;99.90;;;;;;5020824;28;20188;-85
2023/08/20 06:22:38;;;;;;;3.30;3.00;;;25.20;99.90;;;;;;5003488;28;20189;-85
2023/08/20 06:25:04;;;;;;;2.77;2.57;;;25.30;99.90;;;;;;5002329;28;20186;-85
2023/08/20 06:27:31;;;;;;;3.20;2.90;;;25.30;99.90;;;;;;5005491;28;20216;-85
2023/08/20 06:29:56;;;;;;;2.90;2.70;;;25.40;99.90;;;;;;5001338;28;20570;-85
2023/08/20 06:32:23;;;;;;;3.00;2.80;;;25.50;99.90;;;;;;5005097;28;20473;-85
2023/08/20 06:34:49;;;;;;;3.17;2.97;;;25.50;99.90;;;;;;5002481;28;20275;-85
2023/08/20 06:37:15;;;;;;;3.03;2.83;;;25.60;99.90;;;;;;5005534;28;20216;-85
2023/08/20 06:39:40;;;;;;;2.90;2.70;;;25.60;99.90;;;;;;5003052;28;20196;-85
2023/08/20 06:42:06;;;;;;;3.70;2.90;;;25.70;99.90;;;;;;5005044;28;20196;-85
2023/08/20 06:44:31;;;;;;;3.00;2.80;;;25.70;99.90;;;;;;5005530;28;20189;-85
2023/08/20 06:46:58;;;;;;;2.80;2.60;;;25.70;99.90;;;;;;5026918;28;20243;-86
2023/08/20 06:49:23;;;;;;;3.00;2.80;;;25.80;99.90;;;;;;5023702;28;20395;-85
2023/08/20 06:51:49;;;;;;;4.03;2.90;;;25.80;99.90;;;;;;5008075;28;20196;-86
2023/08/20 06:54:16;;;;;;;3.47;3.17;;;25.90;99.90;;;;;;5006684;28;20370;-85
2023/08/20 06:56:42;;;;;;;3.20;3.00;;;25.90;99.90;;;;;;5014898;28;20708;-86
2023/08/20 06:59:07;;;;;;;3.40;3.10;;;26.00;99.90;;;;;;5008713;28;20199;-86
2023/08/20 07:01:33;;;;;;;3.30;3.00;;;26.00;99.90;;;;;;5025502;28;20482;-86
2023/08/20 07:03:59;;;;;;;4.03;3.00;;;26.10;99.90;;;;;;5008035;28;20184;-86
2023/08/20 07:06:25;;;;;;;3.30;3.00;;;26.10;99.90;;;;;;5025989;28;20346;-86
2023/08/20 07:08:51;;;;;;;3.55;2.97;;;26.20;99.90;;;;;;5005889;28;20198;-85
2023/08/20 07:11:16;;;;;;;2.88;2.67;;;26.20;99.90;;;;;;5023101;28;20567;-86
2023/08/20 07:13:42;;;;;;;3.95;3.13;;;26.30;99.90;;;;;;5025128;28;20185;-85
2023/08/20 07:16:08;;;;;;;3.00;2.80;;;26.30;99.90;;;;;;5006769;28;20192;-86
2023/08/20 07:18:34;;;;;;;3.50;3.20;;;26.40;99.90;;;;;;5007162;28;20193;-86
2023/08/20 07:21:00;;;;;;;2.92;2.72;;;26.40;99.90;;;;;;5005940;28;20177;-86
2023/08/20 07:23:26;;;;;;;2.78;2.50;;;26.50;99.90;;;;;;5006308;28;20549;-86
2023/08/20 07:26:03;;;;;;;3.15;2.90;;;26.60;99.90;;;;;;5006347;28;20259;-86
2023/08/20 07:28:56;;;;;;;3.13;2.88;;;26.60;99.90;;;;;;5028633;28;20316;-85
2023/08/20 07:31:14;;;;;;;3.13;2.80;;;26.70;99.90;;;;;;5025782;28;20562;-86
2023/08/20 07:33:40;;;;;;;3.10;2.80;;;26.80;99.90;;;;;;5024043;28;20204;-86
2023/08/20 07:36:06;;;;;;;4.05;2.78;;;26.90;99.90;;;;;;5006590;28;20190;-86
2023/08/20 07:38:32;;;;;;;3.33;3.03;;;27.00;99.90;;;;;;5026351;28;20281;-86
2023/08/20 07:40:57;;;;;;;3.13;2.92;;;27.10;99.90;;;;;;5023897;28;20208;-86
2023/08/20 07:43:24;;;;;;;3.40;3.10;;;27.20;99.90;;;;;;5026459;28;20177;-86
2023/08/20 07:45:50;;;;;;;3.40;3.10;;;27.40;99.90;;;;;;5025719;28;20567;-86
2023/08/20 07:48:16;;;;;;;3.10;2.80;;;27.50;99.90;;;;;;5020716;28;20300;-86
2023/08/20 07:50:41;;;;;;;3.38;3.08;;;27.60;99.60;;;;;;5023257;28;20204;-86
2023/08/20 07:53:07;;;;;;;3.28;2.97;;;27.80;99.10;;;;;;5002574;28;20185;-87
2023/08/20 07:55:33;;;;;;;3.08;2.88;;;28.10;98.50;;;;;;5001708;28;20181;-86
2023/08/20 07:57:59;;;;;;;3.53;3.22;;;28.40;97.60;;;;;;5017465;28;20196;-86
2023/08/20 08:00:24;;;;;;;3.20;3.00;;;28.70;96.70;;;;;;5004462;28;20192;-86
2023/08/20 08:02:50;;;;;;;3.17;2.80;;;28.90;96.00;;;;;;5003829;28;20185;-86
2023/08/20 08:05:16;;;;;;;3.03;2.78;;;29.10;95.30;;;;;;5010883;28;20184;-87
2023/08/20 08:07:41;;;;;;;3.35;3.05;;;29.30;94.80;;;;;;5001271;28;20216;-86
2023/08/20 08:10:07;;;;;;;3.60;3.30;;;29.40;94.30;;;;;;5020595;28;20184;-86
2023/08/20 08:12:33;;;;;;;3.28;3.00;;;29.50;94.00;;;;;;5001775;28;20241;-86
2023/08/20 08:14:59;;;;;;;3.28;2.97;;;29.70;93.70;;;;;;5028063;28;20247;-86
2023/08/20 08:17:25;;;;;;;3.15;2.88;;;29.80;93.30;;;;;;5021313;28;20471;-87
2023/08/20 08:19:53;;;;;;;3.25;2.95;;;29.80;93.00;;;;;;5003875;28;20458;-87
2023/08/20 08:22:19;;;;;;;3.13;2.88;;;29.90;92.70;;;;;;5002999;28;20203;-87
2023/08/20 08:24:45;;;;;;;2.97;2.78;;;29.90;92.50;;;;;;5003271;28;20643;-87
2023/08/20 08:27:10;;;;;;;3.13;2.83;;;30.00;92.30;;;;;;5015664;28;20271;-87
2023/08/20 08:29:36;;;;;;;3.42;2.83;;;30.10;91.90;;;;;;5000948;28;20410;-87
2023/08/20 08:32:02;;;;;;;3.22;2.92;;;30.20;91.60;;;;;;4999251;28;20177;-87
2023/08/20 08:34:28;;;;;;;3.45;3.15;;;30.30;91.40;;;;;;5017774;28;20451;-87
2023/08/20 08:36:53;;;;;;;3.08;2.88;;;30.40;90.90;;;;;;5000461;28;20288;-87
2023/08/20 08:39:19;;;;;;;3.03;2.83;;;30.50;90.70;;;;;;5019624;28;20433;-86
2023/08/20 08:41:49;;;;;;;3.50;3.08;;;30.60;90.30;;;;;;5001573;28;20185;-87
2023/08/20 08:44:16;;;;;;;3.20;2.85;;;30.70;90.10;;;;;;5000433;28;20189;-87
2023/08/20 08:46:42;;;;;;;3.22;3.03;;;30.40;90.80;;;;;;5004701;28;20212;-87
2023/08/20 08:49:08;;;;;;;3.30;3.00;;;30.00;91.70;;;;;;5002177;28;20178;-87
2023/08/20 08:51:35;;;;;;;3.33;3.10;;;30.20;91.70;;;;;;5022056;28;20431;-87
2023/08/20 08:54:02;;;;;;;3.05;2.83;;;30.40;91.20;;;;;;5002802;28;20181;-87
2023/08/20 08:56:28;;;;;;;4.15;3.00;;;30.60;90.90;;;;;;5000561;28;20520;-87
2023/08/20 08:58:54;;;;;;;3.33;3.03;;;30.80;90.90;;;;;;5003100;28;20209;-87
2023/08/20 09:01:20;;;;;;;3.00;2.80;;;31.00;90.00;;;;;;5017250;28;20177;-86
2023/08/20 09:03:47;;;;;;;3.25;2.95;;;31.10;89.50;;;;;;5000214;28;20463;-87
2023/08/20 09:06:13;;;;;;;3.13;2.80;;;30.80;90.10;;;;;;5000394;28;20239;-87
2023/08/20 09:08:39;;;;;;;3.28;2.97;;;30.50;91.00;;;;;;4999864;28;20685;-87
2023/08/20 09:11:04;;;;;;;4.72;3.20;;;30.50;91.10;;;;;;5005262;28;20717;-87
2023/08/20 09:13:36;;;;;;;3.08;2.88;;;30.70;91.00;;;;;;5002059;28;20203;-86
2023/08/20 09:16:10;;;;;;;3.30;3.00;;;30.70;90.90;;;;;;5016685;28;20551;-86
2023/08/20 09:18:44;;;;;;;2.95;2.75;;;30.90;90.40;;;;;;5012390;28;20192;-86
2023/08/20 09:21:12;;;;;;;3.25;2.88;;;31.00;90.10;;;;;;5001935;28;20187;-86
2023/08/20 09:23:38;;;;;;;3.28;2.97;;;30.70;90.70;;;;;;5011945;28;20757;-86
2023/08/20 09:26:05;;;;;;;3.47;3.00;;;30.60;91.00;;;;;;5003194;28;20176;-86
2023/08/20 09:28:47;;;;;;;3.40;3.10;;;30.50;91.60;;;;;;5001192;28;20177;-86
2023/08/20 09:31:14;;;;;;;3.50;3.20;;;30.40;91.90;;;;;;5021868;28;20267;-86
2023/08/20 09:33:50;;;;;;;3.35;3.05;;;30.40;91.70;;;;;;5002568;28;20615;-87
2023/08/20 09:36:16;;;;;;;3.53;3.17;;;30.50;91.60;;;;;;5017413;28;20181;-86
2023/08/20 09:38:42;;;;;;;4.22;3.30;;;30.50;91.50;;;;;;4998711;28;20220;-86
2023/08/20 09:41:09;;;;;;;3.38;3.10;;;30.40;92.00;;;;;;5003320;28;20479;-86
2023/08/20 09:43:38;;;;;;;3.50;3.20;;;30.30;92.50;;;;;;5020581;28;20181;-86
2023/08/20 09:46:06;;;;;;;3.60;3.30;;;30.30;92.60;;;;;;5019472;28;20185;-86
2023/08/20 09:48:36;;;;;;;3.75;2.70;;;30.20;93.00;;;;;;5007931;28;20185;-86
2023/08/20 09:51:09;;;;;;;3.50;3.20;;;30.10;93.20;;;;;;5016154;28;20368;-86
2023/08/20 09:54:03;;;;;;;3.50;3.20;;;30.10;93.60;;;;;;5019810;28;20417;-86
2023/08/20 09:56:30;;;;;;;3.15;2.95;;;30.10;93.70;;;;;;5021780;28;20273;-86
2023/08/20 09:59:00;;;;;;;3.58;3.28;;;30.20;93.50;;;;;;5002449;28;20189;-86
2023/08/20 10:01:27;;;;;;;3.45;3.15;;;30.20;93.40;;;;;;5019773;28;20239;-86
2023/08/20 10:03:54;;;;;;;3.38;3.08;;;30.20;93.70;;;;;;4998543;28;20219;-86
2023/08/20 10:06:20;;;;;;;3.35;3.03;;;30.10;93.80;;;;;;5002892;28;20212;-86
2023/08/20 10:08:46;;;;;;;3.70;3.10;;;30.10;93.90;;;;;;5015596;28;20170;-87
2023/08/20 10:11:13;;;;;;;3.25;2.90;;;30.10;94.00;;;;;;5019307;28;20264;-86
2023/08/20 10:13:39;;;;;;;3.38;3.08;;;30.10;94.10;;;;;;5000587;28;20177;-86
2023/08/20 10:16:05;;;;;;;3.30;3.00;;;30.00;94.30;;;;;;4997731;28;20268;-86
2023/08/20 10:18:34;;;;;;;3.42;3.13;;;30.10;94.30;;;;;;5001873;28;20258;-85
2023/08/20 10:21:07;;;;;;;3.38;2.95;;;30.00;94.50;;;;;;5021305;28;20177;-85
2023/08/20 10:23:33;;;;;;;3.28;2.97;;;30.00;94.60;;;;;;5010276;28;20280;-85
2023/08/20 10:26:08;;;;;;;3.40;3.10;;;30.00;94.90;;;;;;5000717;28;20343;-85
2023/08/20 10:28:34;;;;;;;3.17;2.92;;;30.00;94.60;;;;;;5020704;28;20172;-86
2023/08/20 10:31:09;;;;;;;3.78;3.40;;;30.10;94.60;;;;;;4999863;28;20177;-85
2023/08/20 10:33:36;;;;;;;4.07;2.83;;;30.10;94.60;;;;;;5002602;28;20172;-85
2023/08/20 10:36:22;;;;;;;3.20;2.92;;;30.10;94.80;;;;;;5020738;28;20242;-85
2023/08/20 10:38:49;;;;;;;3.13;2.92;;;30.10;95.00;;;;;;5011258;28;20185;-86
2023/08/20 10:41:18;;;;;;;3.50;2.67;;;30.10;94.90;;;;;;5011795;28;20176;-84
2023/08/20 10:43:51;;;;;;;3.15;2.85;;;30.10;94.90;;;;;;4999568;28;20181;-86
2023/08/20 10:46:23;;;;;;;3.38;3.08;;;30.10;95.10;;;;;;5026816;28;20258;-85
2023/08/20 10:48:54;;;;;;;3.30;3.00;;;30.00;95.20;;;;;;5030995;28;20251;-85
2023/08/20 10:51:32;;;;;;;3.30;3.00;;;30.00;95.30;;;;;;5006607;28;20192;-85
2023/08/20 10:54:02;;;;;;;3.40;3.10;;;30.00;95.60;;;;;;4999432;28;20351;-85
2023/08/20 10:56:43;;;;;;;3.00;2.80;;;30.00;95.70;;;;;;5022372;28;20544;-85
2023/08/20 10:59:42;;;;;;;3.75;3.28;;;30.00;95.80;;;;;;4998583;28;20481;-85
2023/08/20 11:02:14;;;;;;;3.20;2.90;;;30.00;95.70;;;;;;5000586;28;20296;-85
2023/08/20 11:04:40;;;;;;;2.95;2.75;;;30.00;96.00;;;;;;5002774;28;20188;-85
2023/08/20 11:07:06;;;;;;;3.30;2.90;;;29.90;96.20;;;;;;5006428;28;20285;-85
2023/08/20 11:09:32;;;;;;;3.80;3.17;;;29.90;96.30;;;;;;5003713;28;20185;-85
2023/08/20 11:11:59;;;;;;;3.20;2.88;;;29.90;96.50;;;;;;4998243;28;20193;-85
2023/08/20 11:14:24;;;;;;;3.22;2.92;;;29.90;96.40;;;;;;5018515;28;20181;-85
2023/08/20 11:16:50;;;;;;;2.97;2.70;;;29.90;96.60;;;;;;5002969;28;20192;-85
2023/08/20 11:19:21;;;;;;;3.25;2.75;;;29.90;96.70;;;;;;5015613;28;20690;-85
2023/08/20 11:21:54;;;;;;;2.95;2.75;;;29.90;97.00;;;;;;5014737;28;20182;-84
2023/08/20 11:24:21;;;;;;;3.00;2.70;;;29.90;96.80;;;;;;4995510;28;20186;-84
2023/08/20 11:26:47;;;;;;;3.55;2.85;;;29.90;96.80;;;;;;5003314;28;20215;-84
2023/08/20 11:29:20;;;;;;;3.28;2.97;;;29.90;97.00;;;;;;5002544;28;20289;-84
2023/08/20 11:31:47;;;;;;;3.50;2.75;;;29.90;97.20;;;;;;5019729;28;20174;-84
2023/08/20 11:34:13;;;;;;;2.80;2.60;;;29.90;97.40;;;;;;5022944;28;20232;-85
2023/08/20 11:36:40;;;;;;;2.85;2.65;;;29.80;97.50;;;;;;5008159;28;20196;-84
2023/08/20 11:39:06;;;;;;;3.10;2.80;;;29.80;97.60;;;;;;5024757;28;20292;-84
2023/08/20 11:41:36;;;;;;;3.20;3.00;;;29.80;97.80;;;;;;5025219;28;20184;-84
2023/08/20 11:44:03;;;;;;;2.90;2.70;;;29.90;97.80;;;;;;5005342;28;20182;-85
2023/08/20 11:46:29;;;;;;;2.80;2.60;;;29.90;97.80;;;;;;4992795;28;20205;-84
2023/08/20 11:49:08;;;;;;;3.13;2.83;;;29.90;97.80;;;;;;5006635;28;20188;-84
2023/08/20 11:51:37;;;;;;;3.15;2.85;;;29.90;97.80;;;;;;5023754;28;20185;-84
2023/08/20 11:54:09;;;;;;;3.10;2.90;;;30.00;97.70;;;;;;5034229;28;20216;-84
2023/08/20 11:56:35;;;;;;;4.15;3.13;;;29.90;97.80;;;;;;5004510;28;20185;-83
2023/08/20 11:59:02;;;;;;;3.25;2.95;;;30.00;98.00;;;;;;5005736;28;20410;-84
2023/08/20 12:01:32;;;;;;;3.08;2.78;;;30.00;98.10;;;;;;5001409;28;20259;-84
2023/08/20 12:04:05;;;;;;;3.30;3.00;;;30.00;97.90;;;;;;5000680;28;20186;-84
2023/08/20 12:06:31;;;;;;;3.80;2.92;;;30.00;98.00;;;;;;5021462;28;20255;-83
2023/08/20 12:08:58;;;;;;;3.30;3.00;;;30.00;97.90;;;;;;5006471;28;20191;-84
2023/08/20 12:11:33;;;;;;;3.47;2.60;;;30.00;98.00;;;;;;5006645;28;20237;-84
2023/08/20 12:13:59;;;;;;;3.28;2.90;;;30.00;98.10;;;;;;5008171;28;20168;-84
2023/08/20 12:16:25;;;;;;;3.20;2.88;;;30.00;98.30;;;;;;5012125;28;20177;-84
2023/08/20 12:18:52;;;;;;;3.08;2.80;;;30.00;98.40;;;;;;5011344;28;20177;-84
2023/08/20 12:21:18;;;;;;;3.13;2.83;;;30.00;98.40;;;;;;5008663;28;20456;-84
2023/08/20 12:23:44;;;;;;;3.53;3.22;;;30.10;98.30;;;;;;5009635;28;20197;-85
2023/08/20 12:26:10;;;;;;;3.25;2.95;;;30.10;98.50;;;;;;5024215;28;20207;-85
2023/08/20 12:28:36;;;;;;;3.08;2.88;;;30.10;98.50;;;;;;5005256;28;20245;-84
2023/08/20 12:31:03;;;;;;;3.17;2.90;;;30.10;98.50;;;;;;5004930;28;20177;-84
2023/08/20 12:33:29;;;;;;;3.05;2.85;;;30.10;98.60;;;;;;5016274;28;20489;-84
2023/08/20 12:35:55;;;;;;;2.85;2.65;;;30.10;98.40;;;;;;5013298;28;20181;-85
2023/08/20 12:38:22;;;;;;;3.45;3.17;;;30.10;98.50;;;;;;5003568;28;20204;-83
2023/08/20 12:40:47;;;;;;;4.25;3.25;;;30.10;98.50;;;;;;5020661;28;20433;-83
2023/08/20 12:43:13;;;;;;;3.40;2.97;;;30.10;98.70;;;;;;5005913;28;20187;-84
2023/08/20 12:45:39;;;;;;;3.63;3.33;;;30.10;98.60;;;;;;4997982;28;20636;-84
2023/08/20 12:48:09;;;;;;;4.05;3.67;;;30.10;98.70;;;;;;5020940;28;20259;-83